createdAt,value
2023-02-16T00:00:51.542Z,101964.22
2023-02-16T00:03:37.239Z,101949.53
2023-02-16T00:06:24.288Z,101964.22
2023-02-16T00:09:09.549Z,101952.97
2023-02-16T00:12:13.798Z,101970.25
2023-02-16T00:14:59.410Z,101964.22
2023-02-16T00:17:44.894Z,101958.16
2023-02-16T00:20:30.760Z,101953.84
2023-02-16T00:23:16.685Z,101953.84
2023-02-16T00:26:03.094Z,101952.97
2023-02-16T00:28:54.725Z,101955.56
2023-02-16T00:31:40.534Z,101951.25
2023-02-16T00:34:28.917Z,101962.50
2023-02-16T00:37:14.646Z,101959.03
2023-02-16T00:40:00.964Z,101956.44
2023-02-16T00:42:47.552Z,101952.13
2023-02-16T00:45:37.688Z,101956.44
2023-02-16T00:48:24.199Z,101959.03
2023-02-16T00:51:24.919Z,101959.03
2023-02-16T00:54:11.649Z,101964.22
2023-02-16T00:56:57.366Z,101962.47
2023-02-16T00:59:43.031Z,101966.78
2023-02-16T01:02:29.159Z,101946.03
2023-02-16T01:05:14.774Z,101956.38
2023-02-16T01:08:19.378Z,101942.59
2023-02-16T01:11:07.370Z,101939.13
2023-02-16T01:13:54.375Z,101944.31
2023-02-16T01:16:42.245Z,101946.06
2023-02-16T01:19:27.832Z,101947.78
2023-02-16T01:22:13.543Z,101937.41
2023-02-16T01:24:58.982Z,101927.91
2023-02-16T01:27:45.103Z,101931.34
2023-02-16T01:30:30.909Z,101920.13
2023-02-16T01:33:16.248Z,101925.31
2023-02-16T01:36:02.084Z,101931.38
2023-02-16T01:38:47.617Z,101932.22
2023-02-16T01:41:59.915Z,101941.72
2023-02-16T01:44:50.940Z,101937.38
2023-02-16T01:47:49.105Z,101938.22
2023-02-16T01:50:45.976Z,101935.63
2023-02-16T01:53:40.031Z,101933.94
2023-02-16T01:56:36.472Z,101933.09
2023-02-16T01:59:42.172Z,101928.75
2023-02-16T02:02:32.974Z,101933.97
2023-02-16T02:05:35.345Z,101916.69
2023-02-16T02:08:45.672Z,101927.91
2023-02-16T02:11:36.912Z,101921.84
2023-02-16T02:14:28.046Z,101927.03
2023-02-16T02:17:17.722Z,101918.38
2023-02-16T02:20:22.061Z,101918.41
2023-02-16T02:23:33.758Z,101917.53
2023-02-16T02:26:41.295Z,101918.41
2023-02-16T02:29:56.617Z,101908.03
2023-02-16T02:33:00.740Z,101917.53
2023-02-16T02:35:58.150Z,101901.09
2023-02-16T02:39:19.649Z,101914.94
2023-02-16T02:42:13.443Z,101905.41
2023-02-16T02:45:09.567Z,101908.00
2023-02-16T02:47:54.969Z,101909.72
2023-02-16T02:51:07.613Z,101901.13
2023-02-16T02:54:35.356Z,101903.66
2023-02-16T02:57:42.886Z,101908.00
2023-02-16T03:00:41.510Z,101900.22
2023-02-16T03:03:33.915Z,101905.41
2023-02-16T03:06:24.033Z,101897.59
2023-02-16T03:09:14.333Z,101897.63
2023-02-16T03:12:21.163Z,101910.56
2023-02-16T03:15:10.126Z,101904.50
2023-02-16T03:18:16.431Z,101899.31
2023-02-16T03:21:23.003Z,101907.13
2023-02-16T03:24:31.058Z,101902.78
2023-02-16T03:27:43.292Z,101891.56
2023-02-16T03:30:30.110Z,101889.81
2023-02-16T03:33:16.226Z,101888.94
2023-02-16T03:36:03.036Z,101888.06
2023-02-16T03:38:48.540Z,101902.72
2023-02-16T03:41:39.002Z,101882.84
2023-02-16T03:44:24.901Z,101901.03
2023-02-16T03:47:10.916Z,101881.16
2023-02-16T03:49:56.454Z,101884.63
2023-02-16T03:52:42.127Z,101893.31
2023-02-16T03:55:27.692Z,101883.81
2023-02-16T03:58:16.255Z,101873.44
2023-02-16T04:01:02.141Z,101883.81
2023-02-16T04:03:47.635Z,101878.63
2023-02-16T04:06:33.232Z,101876.00
2023-02-16T04:09:18.430Z,101878.63
2023-02-16T04:12:23.016Z,101881.22
2023-02-16T04:15:15.607Z,101876.03
2023-02-16T04:18:01.732Z,101881.19
2023-02-16T04:20:47.435Z,101884.66
2023-02-16T04:23:32.916Z,101876.91
2023-02-16T04:26:18.564Z,101882.91
2023-02-16T04:29:04.009Z,101884.66
2023-02-16T04:31:49.961Z,101871.69
2023-02-16T04:34:35.336Z,101875.13
2023-02-16T04:37:21.097Z,101877.75
2023-02-16T04:40:08.531Z,101867.38
2023-02-16T04:42:53.985Z,101872.53
2023-02-16T04:45:39.755Z,101875.13
2023-02-16T04:48:25.217Z,101866.44
2023-02-16T04:51:10.701Z,101846.63
2023-02-16T04:53:56.070Z,101855.28
2023-02-16T04:56:44.725Z,101861.31
2023-02-16T04:59:30.303Z,101847.50
2023-02-16T05:02:15.608Z,101845.75
2023-02-16T05:05:00.859Z,101845.81
2023-02-16T05:07:46.369Z,101845.75
2023-02-16T05:10:32.015Z,101835.41
2023-02-16T05:13:35.732Z,101835.41
2023-02-16T05:16:23.434Z,101855.25
2023-02-16T05:19:08.999Z,101841.44
2023-02-16T05:21:54.399Z,101839.66
2023-02-16T05:24:40.878Z,101844.81
2023-02-16T05:27:28.998Z,101843.06
2023-02-16T05:30:14.711Z,101858.63
2023-02-16T05:33:00.336Z,101862.00
2023-02-16T05:35:45.697Z,101859.41
2023-02-16T05:38:31.321Z,101868.03
2023-02-16T05:41:26.159Z,101868.03
2023-02-16T05:44:11.763Z,101874.06
2023-02-16T05:46:57.290Z,101860.28
2023-02-16T05:49:42.951Z,101862.91
2023-02-16T05:52:28.310Z,101860.34
2023-02-16T05:55:13.577Z,101862.97
2023-02-16T05:57:59.067Z,101869.91
2023-02-16T06:00:44.446Z,101858.69
2023-02-16T06:03:30.354Z,101858.69
2023-02-16T06:06:15.759Z,101865.56
2023-02-16T06:09:01.560Z,101864.66
2023-02-16T06:11:47.352Z,101865.50
2023-02-16T06:14:32.713Z,101865.53
2023-02-16T06:17:18.322Z,101860.31
2023-02-16T06:20:04.691Z,101855.16
2023-02-16T06:22:50.256Z,101867.22
2023-02-16T06:25:36.094Z,101865.47
2023-02-16T06:28:21.790Z,101869.78
2023-02-16T06:31:07.974Z,101874.13
2023-02-16T06:33:54.204Z,101864.66
2023-02-16T06:36:42.441Z,101870.66
2023-02-16T06:39:28.340Z,101868.97
2023-02-16T06:42:13.781Z,101869.84
2023-02-16T06:44:59.352Z,101881.09
2023-02-16T06:47:44.774Z,101880.22
2023-02-16T06:50:30.083Z,101884.59
2023-02-16T06:53:15.509Z,101875.13
2023-02-16T06:56:00.958Z,101869.97
2023-02-16T06:58:46.711Z,101879.47
2023-02-16T07:01:32.347Z,101872.56
2023-02-16T07:04:17.760Z,101868.28
2023-02-16T07:07:04.077Z,101881.25
2023-02-16T07:09:50.404Z,101876.94
2023-02-16T07:12:36.035Z,101870.03
2023-02-16T07:15:21.273Z,101866.56
2023-02-16T07:18:06.804Z,101870.03
2023-02-16T07:20:52.544Z,101866.56
2023-02-16T07:23:38.264Z,101869.13
2023-02-16T07:26:23.729Z,101871.72
2023-02-16T07:29:09.180Z,101867.41
2023-02-16T07:31:56.546Z,101877.72
2023-02-16T07:34:42.287Z,101876.81
2023-02-16T07:37:27.745Z,101869.69
2023-02-16T07:40:13.355Z,101872.69
2023-02-16T07:43:03.644Z,101878.31
2023-02-16T07:45:49.386Z,101870.59
2023-02-16T07:48:35.288Z,101865.56
2023-02-16T07:51:25.214Z,101872.03
2023-02-16T07:54:11.055Z,101861.72
2023-02-16T07:56:56.795Z,101871.25
2023-02-16T07:59:42.374Z,101875.09
2023-02-16T08:02:28.078Z,101873.13
2023-02-16T08:05:13.811Z,101876.97
2023-02-16T08:07:59.352Z,101870.34
2023-02-16T08:10:44.770Z,101871.47
2023-02-16T08:13:30.380Z,101863.69
2023-02-16T08:16:19.177Z,101860.25
2023-02-16T08:19:05.079Z,101851.59
2023-02-16T08:21:50.860Z,101854.28
2023-02-16T08:24:37.305Z,101862.09
2023-02-16T08:27:22.976Z,101873.13
2023-02-16T08:30:12.710Z,101866.66
2023-02-16T08:33:01.735Z,101857.13
2023-02-16T08:35:47.104Z,101858.31
2023-02-16T08:38:34.271Z,101852.72
2023-02-16T08:41:21.838Z,101852.00
2023-02-16T08:44:08.988Z,101850.69
2023-02-16T08:46:56.209Z,101854.31
2023-02-16T08:49:41.829Z,101847.50
2023-02-16T08:52:27.888Z,101848.97
2023-02-16T08:55:13.881Z,101846.94
2023-02-16T08:58:00.678Z,101828.03
2023-02-16T09:00:46.939Z,101827.13
2023-02-16T09:03:32.625Z,101836.59
2023-02-16T09:06:21.378Z,101828.44
2023-02-16T09:09:08.658Z,101833.25
2023-02-16T09:11:54.067Z,101838.38
2023-02-16T09:14:40.223Z,101839.41
2023-02-16T09:17:26.940Z,101837.31
2023-02-16T09:20:12.371Z,101839.25
2023-02-16T09:22:57.907Z,101849.84
2023-02-16T09:25:43.508Z,101843.88
2023-02-16T09:28:30.732Z,101847.66
2023-02-16T09:31:27.098Z,101844.72
2023-02-16T09:34:21.087Z,101842.03
2023-02-16T09:37:06.814Z,101854.69
2023-02-16T09:39:52.325Z,101855.78
2023-02-16T09:43:08.134Z,101871.13
2023-02-16T09:45:58.041Z,101851.66
2023-02-16T09:48:48.564Z,101864.44
2023-02-16T09:51:38.098Z,101860.78
2023-02-16T09:54:46.754Z,101864.66
2023-02-16T09:58:01.055Z,101859.81
2023-02-16T10:00:56.177Z,101867.31
2023-02-16T10:04:05.862Z,101873.22
2023-02-16T10:07:23.152Z,101875.47
2023-02-16T10:10:16.291Z,101861.53
2023-02-16T10:13:09.326Z,101857.41
2023-02-16T10:15:58.188Z,101859.84
2023-02-16T10:18:49.538Z,101846.41
2023-02-16T10:21:36.008Z,101843.84
2023-02-16T10:24:21.388Z,101850.78
2023-02-16T10:27:14.283Z,101863.78
2023-02-16T10:29:59.661Z,101867.50
2023-02-16T10:33:04.367Z,101867.91
2023-02-16T10:35:56.965Z,101849.81
2023-02-16T10:39:23.173Z,101863.28
2023-02-16T10:42:27.023Z,101863.59
2023-02-16T10:45:19.295Z,101873.28
2023-02-16T10:48:05.582Z,101850.94
2023-02-16T10:51:13.942Z,101854.16
2023-02-16T10:54:04.347Z,101849.13
2023-02-16T10:57:00.938Z,101857.19
2023-02-16T10:59:47.133Z,101846.75
2023-02-16T11:02:39.023Z,101841.22
2023-02-16T11:05:32.196Z,101848.81
2023-02-16T11:08:17.767Z,101834.88
2023-02-16T11:11:10.274Z,101828.19
2023-02-16T11:14:30.852Z,101829.25
2023-02-16T11:17:18.570Z,101824.88
2023-02-16T11:20:07.046Z,101823.72
2023-02-16T11:22:52.779Z,101831.16
2023-02-16T11:25:38.258Z,101819.66
2023-02-16T11:28:38.549Z,101828.53
2023-02-16T11:31:40.598Z,101829.13
2023-02-16T11:34:34.586Z,101828.97
2023-02-16T11:37:27.584Z,101832.00
2023-02-16T11:40:19.076Z,101827.19
2023-02-16T11:43:05.847Z,101829.72
2023-02-16T11:46:11.616Z,101822.75
2023-02-16T11:48:57.298Z,101817.31
2023-02-16T11:51:42.723Z,101832.81
2023-02-16T11:54:28.117Z,101826.97
2023-02-16T11:57:15.670Z,101823.25
2023-02-16T12:00:23.865Z,101828.59
2023-02-16T12:03:31.130Z,101828.09
2023-02-16T12:06:31.583Z,101829.66
2023-02-16T12:09:38.882Z,101822.84
2023-02-16T12:13:00.738Z,101818.38
2023-02-16T12:16:12.644Z,101813.91
2023-02-16T12:19:20.635Z,101805.38
2023-02-16T12:22:33.022Z,101803.53
2023-02-16T12:25:38.977Z,101798.00
2023-02-16T12:28:54.380Z,101785.50
2023-02-16T12:32:14.157Z,101797.53
2023-02-16T12:35:21.855Z,101795.09
2023-02-16T12:38:56.982Z,101796.78
2023-02-16T12:42:04.124Z,101787.84
2023-02-16T12:44:57.098Z,101797.13
2023-02-16T12:48:01.568Z,101789.28
2023-02-16T12:50:51.173Z,101793.75
2023-02-16T12:53:52.020Z,101798.38
2023-02-16T12:56:47.591Z,101781.28
2023-02-16T12:59:41.733Z,101787.66
2023-02-16T13:02:35.470Z,101783.59
2023-02-16T13:05:26.402Z,101786.44
2023-02-16T13:08:22.207Z,101789.25
2023-02-16T13:11:25.534Z,101778.91
2023-02-16T13:14:17.442Z,101782.66
2023-02-16T13:17:10.201Z,101782.50
2023-02-16T13:19:56.024Z,101773.19
2023-02-16T13:22:58.173Z,101785.00
2023-02-16T13:26:12.235Z,101777.78
2023-02-16T13:29:26.199Z,101775.34
2023-02-16T13:32:30.143Z,101769.34
2023-02-16T13:35:49.423Z,101770.84
2023-02-16T13:39:11.215Z,101767.78
2023-02-16T13:42:40.872Z,101765.25
2023-02-16T13:45:42.198Z,101761.91
2023-02-16T13:48:36.798Z,101744.22
2023-02-16T13:51:25.278Z,101757.59
2023-02-16T13:54:28.018Z,101737.47
2023-02-16T13:57:15.016Z,101740.81
2023-02-16T14:00:05.885Z,101747.28
2023-02-16T14:02:54.791Z,101734.00
2023-02-16T14:05:49.348Z,101744.41
2023-02-16T14:08:35.148Z,101740.19
2023-02-16T14:11:20.392Z,101732.16
2023-02-16T14:14:31.269Z,101718.38
2023-02-16T14:17:19.607Z,101728.81
2023-02-16T14:20:26.398Z,101727.34
2023-02-16T14:23:28.326Z,101725.53
2023-02-16T14:26:14.815Z,101708.75
2023-02-16T14:29:10.054Z,101708.06
2023-02-16T14:32:01.011Z,101691.47
2023-02-16T14:34:51.378Z,101696.94
2023-02-16T14:37:41.196Z,101694.19
2023-02-16T14:40:35.475Z,101709.63
2023-02-16T14:43:25.603Z,101709.06
2023-02-16T14:46:24.388Z,101704.06
2023-02-16T14:49:19.279Z,101714.63
2023-02-16T14:52:29.588Z,101708.50
2023-02-16T14:55:41.967Z,101708.31
2023-02-16T14:59:00.549Z,101706.06
2023-02-16T15:01:46.983Z,101695.19
2023-02-16T15:04:35.004Z,101690.38
2023-02-16T15:07:21.554Z,101698.09
2023-02-16T15:10:09.176Z,101696.50
2023-02-16T15:12:55.937Z,101684.44
2023-02-16T15:15:47.237Z,101691.03
2023-02-16T15:18:38.377Z,101691.66
2023-02-16T15:21:28.293Z,101701.88
2023-02-16T15:24:24.179Z,101702.03
2023-02-16T15:27:21.257Z,101689.44
2023-02-16T15:30:20.511Z,101686.66
2023-02-16T15:33:14.011Z,101708.47
2023-02-16T15:36:21.956Z,101678.59
2023-02-16T15:39:13.854Z,101689.06
2023-02-16T15:42:31.739Z,101691.03
2023-02-16T15:45:33.113Z,101677.34
2023-02-16T15:48:36.730Z,101675.34
2023-02-16T15:51:33.176Z,101672.47
2023-02-16T15:54:31.133Z,101675.47
2023-02-16T15:57:31.934Z,101670.28
2023-02-16T16:00:21.079Z,101682.16
2023-02-16T16:03:09.496Z,101684.84
2023-02-16T16:06:03.517Z,101685.53
2023-02-16T16:08:49.073Z,101684.25
2023-02-16T16:11:36.289Z,101691.66
2023-02-16T16:14:22.387Z,101693.66
2023-02-16T16:17:13.259Z,101687.59
2023-02-16T16:20:17.909Z,101685.91
2023-02-16T16:23:24.896Z,101689.41
2023-02-16T16:26:19.173Z,101685.84
2023-02-16T16:29:24.564Z,101681.59
2023-02-16T16:32:18.405Z,101694.84
2023-02-16T16:35:22.191Z,101691.19
2023-02-16T16:38:24.436Z,101692.31
2023-02-16T16:41:27.578Z,101682.00
2023-02-16T16:44:33.072Z,101689.91
2023-02-16T16:47:30.574Z,101693.72
2023-02-16T16:50:18.127Z,101687.84
2023-02-16T16:53:23.690Z,101694.13
2023-02-16T16:56:11.108Z,101710.41
2023-02-16T16:58:58.284Z,101719.38
2023-02-16T17:01:46.036Z,101706.47
2023-02-16T17:04:31.440Z,101712.53
2023-02-16T17:07:16.828Z,101696.16
2023-02-16T17:10:02.442Z,101702.50
2023-02-16T17:12:52.284Z,101693.53
2023-02-16T17:16:00.921Z,101693.81
2023-02-16T17:18:46.412Z,101690.09
2023-02-16T17:21:31.829Z,101687.00
2023-02-16T17:24:17.106Z,101695.69
2023-02-16T17:27:02.523Z,101687.06
2023-02-16T17:29:48.031Z,101687.94
2023-02-16T17:32:33.666Z,101685.16
2023-02-16T17:35:19.362Z,101681.88
2023-02-16T17:38:20.067Z,101680.31
2023-02-16T17:41:05.561Z,101672.78
2023-02-16T17:43:51.068Z,101675.41
2023-02-16T17:46:36.684Z,101683.16
2023-02-16T17:49:22.080Z,101682.44
2023-02-16T17:52:13.681Z,101678.88
2023-02-16T17:54:59.245Z,101679.81
2023-02-16T17:57:44.918Z,101676.22
2023-02-16T18:00:30.575Z,101672.94
2023-02-16T18:03:16.503Z,101676.44
2023-02-16T18:06:01.877Z,101659.81
2023-02-16T18:08:49.993Z,101667.78
2023-02-16T18:11:35.691Z,101651.31
2023-02-16T18:14:21.001Z,101663.63
2023-02-16T18:17:07.117Z,101658.44
2023-02-16T18:19:52.388Z,101657.13
2023-02-16T18:22:37.710Z,101658.09
2023-02-16T18:25:23.861Z,101664.47
2023-02-16T18:28:21.039Z,101671.22
2023-02-16T18:31:08.042Z,101672.16
2023-02-16T18:33:53.593Z,101671.06
2023-02-16T18:36:39.299Z,101650.72
2023-02-16T18:39:24.946Z,101668.13
2023-02-16T18:42:10.971Z,101668.09
2023-02-16T18:44:56.558Z,101665.63
2023-02-16T18:47:44.220Z,101679.81
2023-02-16T18:50:30.207Z,101671.16
2023-02-16T18:53:15.714Z,101667.78
2023-02-16T18:56:01.338Z,101672.13
2023-02-16T18:58:46.975Z,101665.25
2023-02-16T19:01:33.375Z,101674.81
2023-02-16T19:04:19.071Z,101661.78
2023-02-16T19:07:04.914Z,101672.81
2023-02-16T19:09:50.325Z,101673.69
2023-02-16T19:12:37.374Z,101676.09
2023-02-16T19:15:22.917Z,101675.03
2023-02-16T19:18:08.257Z,101679.22
2023-02-16T19:20:53.900Z,101666.38
2023-02-16T19:23:39.720Z,101675.91
2023-02-16T19:26:25.480Z,101670.41
2023-02-16T19:29:12.670Z,101667.63
2023-02-16T19:31:58.388Z,101657.19
2023-02-16T19:34:43.834Z,101658.97
2023-02-16T19:37:29.660Z,101664.25
2023-02-16T19:40:16.523Z,101658.16
2023-02-16T19:43:01.854Z,101663.22
2023-02-16T19:45:47.334Z,101648.72
2023-02-16T19:48:32.924Z,101648.72
2023-02-16T19:51:24.053Z,101643.91
2023-02-16T19:54:09.549Z,101659.66
2023-02-16T19:56:54.817Z,101646.38
2023-02-16T19:59:40.332Z,101649.19
2023-02-16T20:02:25.717Z,101636.25
2023-02-16T20:05:11.759Z,101649.13
2023-02-16T20:07:57.181Z,101642.50
2023-02-16T20:10:44.293Z,101645.13
2023-02-16T20:13:29.755Z,101637.28
2023-02-16T20:16:15.895Z,101637.28
2023-02-16T20:19:01.460Z,101634.47
2023-02-16T20:21:47.223Z,101627.59
2023-02-16T20:24:32.469Z,101618.78
2023-02-16T20:27:18.280Z,101623.19
2023-02-16T20:30:08.293Z,101622.31
2023-02-16T20:32:53.732Z,101628.81
2023-02-16T20:35:39.407Z,101622.97
2023-02-16T20:38:24.819Z,101626.34
2023-02-16T20:41:10.814Z,101609.84
2023-02-16T20:43:56.391Z,101602.78
2023-02-16T20:46:42.433Z,101609.97
2023-02-16T20:49:27.888Z,101608.03
2023-02-16T20:52:13.493Z,101606.22
2023-02-16T20:54:58.707Z,101601.41
2023-02-16T20:57:44.175Z,101602.31
2023-02-16T21:00:29.915Z,101594.63
2023-02-16T21:03:15.749Z,101586.66
2023-02-16T21:06:01.052Z,101585.53
2023-02-16T21:08:46.606Z,101582.59
2023-02-16T21:11:32.676Z,101588.41
2023-02-16T21:14:18.059Z,101565.84
2023-02-16T21:17:03.765Z,101567.53
2023-02-16T21:19:49.360Z,101552.94
2023-02-16T21:22:35.462Z,101552.88
2023-02-16T21:25:20.986Z,101540.00
2023-02-16T21:28:06.517Z,101537.47
2023-02-16T21:30:51.935Z,101523.50
2023-02-16T21:33:37.826Z,101519.38
2023-02-16T21:36:25.720Z,101523.78
2023-02-16T21:39:11.079Z,101524.03
2023-02-16T21:41:56.450Z,101522.25
2023-02-16T21:44:44.710Z,101515.28
2023-02-16T21:47:48.752Z,101519.59
2023-02-16T21:50:38.176Z,101516.97
2023-02-16T21:53:23.761Z,101515.66
2023-02-16T21:56:19.449Z,101506.13
2023-02-16T21:59:08.792Z,101513.03
2023-02-16T22:01:54.070Z,101517.59
2023-02-16T22:04:39.831Z,101511.25
2023-02-16T22:07:25.295Z,101507.97
2023-02-16T22:10:10.696Z,101514.97
2023-02-16T22:12:57.162Z,101513.81
2023-02-16T22:15:42.701Z,101508.50
2023-02-16T22:18:28.532Z,101500.97
2023-02-16T22:21:14.010Z,101494.91
2023-02-16T22:24:00.646Z,101493.19
2023-02-16T22:26:48.418Z,101481.81
2023-02-16T22:29:34.141Z,101482.44
2023-02-16T22:32:19.876Z,101466.16
2023-02-16T22:35:05.667Z,101477.47
2023-02-16T22:37:51.025Z,101483.81
2023-02-16T22:40:36.723Z,101488.88
2023-02-16T22:43:22.151Z,101482.84
2023-02-16T22:46:12.957Z,101475.78
2023-02-16T22:48:59.573Z,101481.72
2023-02-16T22:51:45.052Z,101465.31
2023-02-16T22:54:30.943Z,101477.56
2023-02-16T22:57:16.280Z,101469.78
2023-02-16T23:00:01.769Z,101468.03
2023-02-16T23:02:47.515Z,101457.59
2023-02-16T23:05:32.863Z,101457.53
2023-02-16T23:08:18.451Z,101442.91
2023-02-16T23:11:04.570Z,101445.41
2023-02-16T23:13:49.978Z,101435.03
2023-02-16T23:16:35.623Z,101438.31
2023-02-16T23:19:24.655Z,101433.13
2023-02-16T23:22:10.127Z,101422.78
2023-02-16T23:25:15.370Z,101422.63
2023-02-16T23:28:02.603Z,101414.34
2023-02-16T23:30:48.522Z,101410.69
2023-02-16T23:33:34.274Z,101412.28
2023-02-16T23:36:19.594Z,101403.63
2023-02-16T23:39:15.368Z,101408.75
2023-02-16T23:42:01.134Z,101399.13
2023-02-16T23:44:46.476Z,101398.91
2023-02-16T23:47:32.300Z,101391.94
2023-02-16T23:50:17.727Z,101395.53
2023-02-16T23:53:03.153Z,101379.81
2023-02-16T23:56:06.449Z,101391.06
2023-02-16T23:58:53.005Z,101395.22
